Littleton, New Hampshire
Current Conditions -  °F | °C
As of 11:52 AM on Thursday 18 Dec 2014 (Local Time) from KHIE Reporting Station
Overcast Overcast  
Wind Chill: 27°   Ceiling: 1700
Heat Index: 32°   Visibility: 10mi
Dew Point: 28°   Wind: 5mph
Humidity: 85%   Direction: 250°WSW
Pressure: 29.73"   Gusts: NA
Location:  44.31°N, 71.77°W
Report Text: KHIE 181652Z AUTO 25004KT 10SM OVC017 00/M02 A2973 RMK AO2 SLP079 T00001022
Loading
Personal Weather Stations






























Interactive Weather Map New forecast layout! Learn more

10-Day Weather Forecast

Advertisements
Track Severe Weather on mobile